Time;durP1;ratioP1;P1;durP2;ratioP2;P2;SDS_P1;SDS_P2;PMS_P1;PMS_P2;Temp;Humidity;BMP_temperature;BMP_pressure;BME280_temperature;BME280_humidity;BME280_pressure;Samples;Min_cycle;Max_cycle;Signal;HPM_P1;HPM_P2
2023/08/23 00:02:29;;;;;;;;;;;;;;;;;;5026253;28;19917;-78
2023/08/23 00:05:16;;;;;;;;;;;;;;;;;;5019469;28;19960;-77
2023/08/23 00:08:02;;;;;;;;;;;;;;;;;;5019549;28;19924;-80
2023/08/23 00:10:49;;;;;;;;;;;;;;;;;;5015802;28;20486;-78
2023/08/23 00:13:35;;;;;;;;;;;;;;;;;;5023311;28;19926;-78
2023/08/23 00:16:22;;;;;;;;;;;;;;;;;;5022394;28;19928;-78
2023/08/23 00:19:08;;;;;;;;;;;;;;;;;;5006961;28;19921;-79
2023/08/23 00:21:55;;;;;;;;;;;;;;;;;;5025349;28;19924;-79
2023/08/23 00:24:41;;;;;;;;;;;;;;;;;;5018938;28;19925;-78
2023/08/23 00:27:28;;;;;;;;;;;;;;;;;;5014247;28;19918;-79
2023/08/23 00:30:14;;;;;;;;;;;;;;;;;;5017387;28;19921;-79
2023/08/23 00:33:00;;;;;;;;;;;;;;;;;;5018359;28;20373;-79
2023/08/23 00:35:47;;;;;;;;;;;;;;;;;;5027951;28;19918;-79
2023/08/23 00:38:33;;;;;;;;;;;;;;;;;;5027893;28;20340;-80
2023/08/23 00:41:20;;;;;;;;;;;;;;;;;;5024985;28;20000;-80
2023/08/23 00:44:06;;;;;;;;;;;;;;;;;;5014674;28;20488;-80
2023/08/23 00:46:53;;;;;;;;;;;;;;;;;;5020483;28;20391;-79
2023/08/23 00:49:39;;;;;;;;;;;;;;;;;;4990530;28;19987;-80
2023/08/23 00:52:27;;;;;;;;;;;;;;;;;;5013938;28;20595;-80
2023/08/23 00:55:13;;;;;;;;;;;;;;;;;;5001301;28;19929;-80
2023/08/23 06:21:39;;;;;;;;;;;;;;;;;;5477586;23;19940;-75
2023/08/23 06:24:26;;;;;;;;;;;;;;;;;;5008531;28;19929;-75
2023/08/23 06:27:12;;;;;;;;;;;;;;;;;;5021971;28;19922;-75
2023/08/23 06:29:59;;;;;;;;;;;;;;;;;;5015856;28;19932;-75
2023/08/23 06:32:46;;;;;;;;;;;;;;;;;;5020861;28;19928;-74
2023/08/23 06:35:32;;;;;;;;;;;;;;;;;;5023725;28;20402;-75
2023/08/23 06:38:19;;;;;;;;;;;;;;;;;;5022162;28;20371;-76
2023/08/23 06:41:05;;;;;;;;;;;;;;;;;;5026980;28;19925;-76
2023/08/23 06:43:52;;;;;;;;;;;;;;;;;;5021985;28;19921;-76
2023/08/23 06:46:38;;;;;;;;;;;;;;;;;;5006948;28;19928;-76
2023/08/23 06:49:24;;;;;;;;;;;;;;;;;;5004502;28;19925;-75
2023/08/23 06:52:11;;;;;;;;;;;;;;;;;;5022083;28;20055;-76
2023/08/23 06:54:57;;;;;;;;;;;;;;;;;;5021520;28;20593;-76
2023/08/23 06:57:44;;;;;;;;;;;;;;;;;;5024339;28;19929;-76
2023/08/23 07:00:30;;;;;;;;;;;;;;;;;;5027551;28;19939;-76
2023/08/23 07:03:17;;;;;;;;;;;;;;;;;;5021522;28;19952;-76
2023/08/23 07:06:03;;;;;;;;;;;;;;;;;;5023019;28;19931;-76
2023/08/23 07:08:50;;;;;;;;;;;;;;;;;;5022802;28;19921;-76
2023/08/23 07:11:38;;;;;;;;;;;;;;;;;;5023579;28;19917;-75
2023/08/23 07:14:24;;;;;;;;;;;;;;;;;;5024831;28;19944;-76
2023/08/23 07:17:11;;;;;;;;;;;;;;;;;;5021978;28;19948;-76
2023/08/23 07:19:57;;;;;;;;;;;;;;;;;;5021000;28;19940;-77
2023/08/23 07:22:44;;;;;;;;;;;;;;;;;;5000253;28;20300;-76
2023/08/23 07:25:30;;;;;;;;;;;;;;;;;;5001292;28;19921;-75
2023/08/23 07:28:17;;;;;;;;;;;;;;;;;;4990869;28;19918;-74
2023/08/23 07:31:03;;;;;;;;;;;;;;;;;;4998596;28;19928;-74
2023/08/23 07:33:50;;;;;;;;;;;;;;;;;;5002492;28;19964;-76
2023/08/23 07:36:36;;;;;;;;;;;;;;;;;;4986644;28;19921;-76
2023/08/23 07:39:24;;;;;;;;;;;;;;;;;;4999855;28;19921;-75
2023/08/23 07:42:11;;;;;;;;;;;;;;;;;;4993284;28;19926;-76
2023/08/23 07:44:57;;;;;;;;;;;;;;;;;;5003127;28;19925;-75
2023/08/23 07:47:44;;;;;;;;;;;;;;;;;;5002461;28;20277;-76
2023/08/23 07:50:30;;;;;;;;;;;;;;;;;;5002177;28;19917;-76
2023/08/23 07:53:17;;;;;;;;;;;;;;;;;;5001350;28;19929;-75
2023/08/23 07:56:03;;;;;;;;;;;;;;;;;;5003475;28;20292;-75
2023/08/23 07:58:50;;;;;;;;;;;;;;;;;;5009041;28;19944;-76
2023/08/23 08:01:36;;;;;;;;;;;;;;;;;;5002264;28;20292;-76
2023/08/23 08:04:23;;;;;;;;;;;;;;;;;;5003609;28;20372;-74
2023/08/23 08:07:09;;;;;;;;;;;;;;;;;;4994290;28;19928;-75
2023/08/23 08:09:56;;;;;;;;;;;;;;;;;;5003924;28;20361;-76
2023/08/23 08:12:42;;;;;;;;;;;;;;;;;;5001418;28;19932;-75
2023/08/23 08:15:29;;;;;;;;;;;;;;;;;;4989669;28;19925;-76
2023/08/23 08:18:15;;;;;;;;;;;;;;;;;;5003835;28;19928;-75
2023/08/23 08:21:02;;;;;;;;;;;;;;;;;;5006476;28;19921;-78
2023/08/23 08:23:48;;;;;;;;;;;;;;;;;;5001180;28;19922;-75
2023/08/23 08:26:35;;;;;;;;;;;;;;;;;;5005100;28;19928;-75
2023/08/23 08:29:21;;;;;;;;;;;;;;;;;;4997165;28;19918;-75
2023/08/23 08:32:08;;;;;;;;;;;;;;;;;;5001301;28;19928;-75
2023/08/23 08:34:57;;;;;;;;;;;;;;;;;;5009542;28;19925;-76
2023/08/23 08:37:44;;;;;;;;;;;;;;;;;;4992744;28;19917;-75
2023/08/23 08:40:30;;;;;;;;;;;;;;;;;;5003599;28;20307;-75
2023/08/23 08:43:18;;;;;;;;;;;;;;;;;;5005815;28;19922;-76
2023/08/23 08:46:04;;;;;;;;;;;;;;;;;;5006978;28;20299;-75
2023/08/23 08:48:50;;;;;;;;;;;;;;;;;;5009827;28;19928;-74
2023/08/23 08:51:37;;;;;;;;;;;;;;;;;;5003574;28;20314;-75
2023/08/23 08:54:23;;;;;;;;;;;;;;;;;;5005258;28;19945;-75
2023/08/23 08:57:10;;;;;;;;;;;;;;;;;;4999321;28;19926;-75
2023/08/23 08:59:56;;;;;;;;;;;;;;;;;;5000102;28;19930;-76
2023/08/23 09:02:43;;;;;;;;;;;;;;;;;;5003679;28;19922;-76
2023/08/23 09:05:29;;;;;;;;;;;;;;;;;;5002940;28;20016;-75
2023/08/23 09:08:16;;;;;;;;;;;;;;;;;;5006725;28;19921;-74
2023/08/23 09:11:02;;;;;;;;;;;;;;;;;;5002168;28;20010;-75
2023/08/23 09:13:49;;;;;;;;;;;;;;;;;;5005405;28;19930;-76
2023/08/23 09:16:35;;;;;;;;;;;;;;;;;;5003904;28;20238;-76
2023/08/23 09:19:22;;;;;;;;;;;;;;;;;;5004947;28;19921;-78
2023/08/23 09:22:08;;;;;;;;;;;;;;;;;;4998579;28;20328;-75
2023/08/23 09:24:55;;;;;;;;;;;;;;;;;;5006583;28;20296;-75
2023/08/23 09:27:41;;;;;;;;;;;;;;;;;;5003804;28;19924;-75
2023/08/23 09:30:28;;;;;;;;;;;;;;;;;;5006860;28;19922;-75
2023/08/23 09:33:14;;;;;;;;;;;;;;;;;;5000411;28;20454;-75
2023/08/23 09:36:00;;;;;;;;;;;;;;;;;;4993319;28;19918;-74
2023/08/23 09:38:47;;;;;;;;;;;;;;;;;;5007555;28;20372;-75
2023/08/23 09:41:33;;;;;;;;;;;;;;;;;;5006336;28;19926;-75
2023/08/23 09:44:20;;;;;;;;;;;;;;;;;;5004428;28;20316;-75
2023/08/23 09:47:06;;;;;;;;;;;;;;;;;;5004315;28;19921;-75
2023/08/23 09:49:53;;;;;;;;;;;;;;;;;;5005303;28;19943;-75
2023/08/23 09:52:39;;;;;;;;;;;;;;;;;;5004507;28;19921;-75
2023/08/23 09:55:26;;;;;;;;;;;;;;;;;;5001269;28;19959;-75
2023/08/23 09:58:12;;;;;;;;;;;;;;;;;;5000178;28;19933;-75
2023/08/23 10:00:59;;;;;;;;;;;;;;;;;;5003399;28;19933;-75
2023/08/23 10:03:45;;;;;;;;;;;;;;;;;;5004535;28;19944;-75
2023/08/23 10:06:32;;;;;;;;;;;;;;;;;;4996921;28;19922;-75
2023/08/23 10:09:18;;;;;;;;;;;;;;;;;;5000437;28;19922;-74
2023/08/23 10:12:05;;;;;;;;;;;;;;;;;;4999570;28;19924;-75
2023/08/23 10:14:51;;;;;;;;;;;;;;;;;;5004419;28;20380;-77
2023/08/23 10:17:37;;;;;;;;;;;;;;;;;;5002379;28;19976;-75
2023/08/23 10:20:24;;;;;;;;;;;;;;;;;;5001719;28;19921;-75
2023/08/23 10:23:10;;;;;;;;;;;;;;;;;;5003217;28;19924;-77
2023/08/23 10:25:57;;;;;;;;;;;;;;;;;;5004581;28;19956;-76
2023/08/23 10:28:43;;;;;;;;;;;;;;;;;;5000728;28;19932;-76
2023/08/23 10:31:31;;;;;;;;;;;;;;;;;;5008522;28;19925;-76
2023/08/23 10:34:17;;;;;;;;;;;;;;;;;;5003165;28;20288;-76
2023/08/23 10:37:04;;;;;;;;;;;;;;;;;;5003863;28;19921;-75
2023/08/23 10:39:50;;;;;;;;;;;;;;;;;;5001822;28;19953;-75
2023/08/23 10:42:37;;;;;;;;;;;;;;;;;;5004144;28;19922;-75
2023/08/23 10:45:23;;;;;;;;;;;;;;;;;;4984251;28;19924;-76
2023/08/23 10:48:10;;;;;;;;;;;;;;;;;;4999381;28;19956;-75
2023/08/23 10:50:56;;;;;;;;;;;;;;;;;;5007324;28;19924;-76
2023/08/23 10:53:43;;;;;;;;;;;;;;;;;;5005135;28;19921;-75
2023/08/23 10:56:29;;;;;;;;;;;;;;;;;;4999889;28;19925;-76
2023/08/23 10:59:16;;;;;;;;;;;;;;;;;;5001860;28;19925;-75
2023/08/23 11:02:02;;;;;;;;;;;;;;;;;;5000172;28;20407;-78
2023/08/23 11:04:49;;;;;;;;;;;;;;;;;;5000242;28;19926;-77
2023/08/23 11:07:35;;;;;;;;;;;;;;;;;;5000356;28;20388;-78
2023/08/23 11:10:22;;;;;;;;;;;;;;;;;;4997273;28;20391;-78
2023/08/23 11:13:08;;;;;;;;;;;;;;;;;;5007500;28;19921;-78
2023/08/23 11:15:55;;;;;;;;;;;;;;;;;;4997113;28;20284;-78
2023/08/23 11:18:42;;;;;;;;;;;;;;;;;;5001512;28;20535;-77
2023/08/23 11:21:28;;;;;;;;;;;;;;;;;;5003483;28;19926;-78
2023/08/23 11:24:15;;;;;;;;;;;;;;;;;;5004211;28;20293;-77
2023/08/23 11:27:01;;;;;;;;;;;;;;;;;;4996229;28;19918;-78
2023/08/23 11:29:48;;;;;;;;;;;;;;;;;;5002812;28;19951;-78
2023/08/23 11:32:34;;;;;;;;;;;;;;;;;;4998410;28;19925;-78
2023/08/23 11:35:21;;;;;;;;;;;;;;;;;;5003949;28;19929;-78
2023/08/23 11:38:07;;;;;;;;;;;;;;;;;;5005189;28;19926;-78
2023/08/23 11:40:53;;;;;;;;;;;;;;;;;;5001043;28;19929;-78
2023/08/23 11:43:40;;;;;;;;;;;;;;;;;;5003785;28;19929;-78
2023/08/23 11:46:26;;;;;;;;;;;;;;;;;;5002112;28;20825;-78
2023/08/23 11:49:15;;;;;;;;;;;;;;;;;;5002680;28;19918;-77
2023/08/23 11:52:02;;;;;;;;;;;;;;;;;;5000944;28;19926;-78
2023/08/23 11:54:48;;;;;;;;;;;;;;;;;;5002175;28;19936;-78
2023/08/23 11:57:37;;;;;;;;;;;;;;;;;;4996919;28;25322;-79
2023/08/23 12:00:23;;;;;;;;;;;;;;;;;;5000650;28;19946;-78
2023/08/23 12:03:10;;;;;;;;;;;;;;;;;;4998839;28;20561;-79
2023/08/23 12:05:56;;;;;;;;;;;;;;;;;;5002996;28;19928;-79
2023/08/23 12:08:43;;;;;;;;;;;;;;;;;;5009028;28;19927;-78
2023/08/23 12:11:29;;;;;;;;;;;;;;;;;;5011749;28;19917;-79
2023/08/23 12:14:16;;;;;;;;;;;;;;;;;;5001606;28;19921;-78
2023/08/23 12:17:02;;;;;;;;;;;;;;;;;;4998091;28;19952;-78
2023/08/23 12:19:49;;;;;;;;;;;;;;;;;;5012076;28;19918;-78
2023/08/23 12:22:35;;;;;;;;;;;;;;;;;;4998317;28;19935;-78
2023/08/23 12:25:22;;;;;;;;;;;;;;;;;;5004740;28;20511;-78
2023/08/23 12:28:08;;;;;;;;;;;;;;;;;;5001547;28;19932;-78
2023/08/23 12:30:55;;;;;;;;;;;;;;;;;;5008488;28;19925;-79
2023/08/23 12:33:41;;;;;;;;;;;;;;;;;;5008375;28;19964;-79
2023/08/23 12:36:28;;;;;;;;;;;;;;;;;;5003353;28;19917;-78
2023/08/23 12:39:16;;;;;;;;;;;;;;;;;;5005112;28;19926;-78
2023/08/23 12:42:03;;;;;;;;;;;;;;;;;;5005732;28;19928;-78
2023/08/23 12:44:49;;;;;;;;;;;;;;;;;;5010838;28;19924;-79
2023/08/23 12:47:36;;;;;;;;;;;;;;;;;;5009050;28;19922;-79
2023/08/23 12:50:22;;;;;;;;;;;;;;;;;;5007010;28;19927;-79
2023/08/23 12:53:09;;;;;;;;;;;;;;;;;;5004273;28;19920;-80
2023/08/23 12:55:55;;;;;;;;;;;;;;;;;;5002207;28;19930;-77
2023/08/23 12:58:42;;;;;;;;;;;;;;;;;;5006064;28;19932;-76
2023/08/23 13:01:28;;;;;;;;;;;;;;;;;;5004000;28;19940;-77
2023/08/23 13:04:15;;;;;;;;;;;;;;;;;;5003360;28;19928;-77
2023/08/23 13:07:02;;;;;;;;;;;;;;;;;;5003785;28;19922;-77
2023/08/23 13:09:50;;;;;;;;;;;;;;;;;;5003975;28;19971;-78
2023/08/23 13:12:36;;;;;;;;;;;;;;;;;;5004492;28;20317;-79
2023/08/23 13:15:23;;;;;;;;;;;;;;;;;;5001761;28;19960;-79
2023/08/23 13:18:09;;;;;;;;;;;;;;;;;;4991107;28;19917;-78
2023/08/23 13:20:55;;;;;;;;;;;;;;;;;;5004398;28;19921;-78
2023/08/23 13:23:42;;;;;;;;;;;;;;;;;;5003087;28;19945;-78
2023/08/23 13:26:28;;;;;;;;;;;;;;;;;;5002382;28;19925;-78
2023/08/23 13:29:15;;;;;;;;;;;;;;;;;;4998793;28;20270;-78
2023/08/23 13:32:02;;;;;;;;;;;;;;;;;;4996886;28;20293;-79
2023/08/23 13:34:48;;;;;;;;;;;;;;;;;;5005338;28;19937;-78
2023/08/23 13:37:35;;;;;;;;;;;;;;;;;;5004489;28;19924;-78
2023/08/23 13:40:21;;;;;;;;;;;;;;;;;;5007565;28;20284;-79
2023/08/23 13:43:08;;;;;;;;;;;;;;;;;;5005732;28;19918;-77
2023/08/23 13:45:54;;;;;;;;;;;;;;;;;;4987900;28;19928;-78
2023/08/23 13:48:44;;;;;;;;;;;;;;;;;;4998416;28;19922;-78
2023/08/23 13:51:30;;;;;;;;;;;;;;;;;;5000274;28;19918;-77
2023/08/23 13:54:17;;;;;;;;;;;;;;;;;;5001134;28;19929;-77
2023/08/23 13:57:04;;;;;;;;;;;;;;;;;;5006464;28;19922;-77
2023/08/23 13:59:50;;;;;;;;;;;;;;;;;;5005046;28;19921;-79
2023/08/23 14:02:37;;;;;;;;;;;;;;;;;;5002957;28;19921;-78
2023/08/23 14:05:24;;;;;;;;;;;;;;;;;;4989430;28;19928;-79
2023/08/23 14:08:10;;;;;;;;;;;;;;;;;;4991632;28;19925;-79
2023/08/23 14:10:57;;;;;;;;;;;;;;;;;;5003167;28;19918;-79
2023/08/23 14:13:43;;;;;;;;;;;;;;;;;;5007344;28;19925;-80
2023/08/23 14:16:29;;;;;;;;;;;;;;;;;;5009670;28;19934;-79
2023/08/23 14:19:19;;;;;;;;;;;;;;;;;;4999766;28;19921;-77
2023/08/23 14:22:06;;;;;;;;;;;;;;;;;;5004423;28;19929;-78
2023/08/23 14:24:52;;;;;;;;;;;;;;;;;;5003285;28;19925;-79
2023/08/23 14:27:40;;;;;;;;;;;;;;;;;;5000358;28;19918;-78
2023/08/23 14:30:26;;;;;;;;;;;;;;;;;;5002839;28;20373;-78
2023/08/23 14:33:13;;;;;;;;;;;;;;;;;;5009485;28;19917;-77
2023/08/23 14:35:59;;;;;;;;;;;;;;;;;;5000041;28;19964;-78
2023/08/23 14:38:46;;;;;;;;;;;;;;;;;;5004480;28;19921;-78
2023/08/23 14:41:34;;;;;;;;;;;;;;;;;;4997725;28;19937;-77
2023/08/23 14:44:21;;;;;;;;;;;;;;;;;;5001374;28;19941;-77
2023/08/23 14:47:09;;;;;;;;;;;;;;;;;;5004832;28;19937;-78
2023/08/23 14:49:55;;;;;;;;;;;;;;;;;;5001998;28;20371;-77
2023/08/23 14:52:42;;;;;;;;;;;;;;;;;;4999807;28;19922;-77
2023/08/23 14:55:29;;;;;;;;;;;;;;;;;;5001436;28;19929;-76
2023/08/23 14:58:16;;;;;;;;;;;;;;;;;;5000954;28;19928;-77
2023/08/23 15:01:03;;;;;;;;;;;;;;;;;;4999377;28;19929;-78
2023/08/23 15:03:49;;;;;;;;;;;;;;;;;;4999061;28;19925;-77
2023/08/23 15:06:36;;;;;;;;;;;;;;;;;;4999625;28;19922;-78
2023/08/23 15:09:22;;;;;;;;;;;;;;;;;;5002283;28;19948;-76
2023/08/23 15:12:09;;;;;;;;;;;;;;;;;;5007122;28;19928;-75
2023/08/23 15:14:55;;;;;;;;;;;;;;;;;;5002453;28;20392;-75
2023/08/23 15:17:42;;;;;;;;;;;;;;;;;;5002029;28;19925;-76
2023/08/23 15:20:28;;;;;;;;;;;;;;;;;;4996256;28;19922;-76
2023/08/23 15:23:15;;;;;;;;;;;;;;;;;;4999452;28;19934;-75
2023/08/23 15:26:02;;;;;;;;;;;;;;;;;;5002605;28;19926;-77
2023/08/23 15:28:48;;;;;;;;;;;;;;;;;;5004219;28;20597;-78
2023/08/23 15:31:35;;;;;;;;;;;;;;;;;;4985400;28;19958;-77
2023/08/23 15:34:21;;;;;;;;;;;;;;;;;;5004031;28;19932;-77
2023/08/23 15:37:08;;;;;;;;;;;;;;;;;;5003017;28;19922;-75
2023/08/23 15:39:55;;;;;;;;;;;;;;;;;;5001504;28;19924;-76
2023/08/23 15:42:42;;;;;;;;;;;;;;;;;;5006057;28;19925;-76
2023/08/23 15:45:28;;;;;;;;;;;;;;;;;;5006913;28;19925;-76
2023/08/23 15:48:15;;;;;;;;;;;;;;;;;;4998696;28;19943;-76
2023/08/23 15:51:01;;;;;;;;;;;;;;;;;;5009726;28;20335;-77
2023/08/23 15:53:48;;;;;;;;;;;;;;;;;;5006508;28;19932;-76
2023/08/23 15:56:34;;;;;;;;;;;;;;;;;;5007317;28;19932;-76
2023/08/23 15:59:21;;;;;;;;;;;;;;;;;;5013513;28;19917;-77
2023/08/23 16:02:07;;;;;;;;;;;;;;;;;;5011772;28;19921;-77
2023/08/23 16:04:54;;;;;;;;;;;;;;;;;;5016115;28;19928;-77
2023/08/23 16:07:40;;;;;;;;;;;;;;;;;;5019178;28;19925;-77
2023/08/23 16:10:27;;;;;;;;;;;;;;;;;;5011007;28;19922;-78
2023/08/23 16:13:13;;;;;;;;;;;;;;;;;;5006801;28;20379;-78
2023/08/23 16:16:00;;;;;;;;;;;;;;;;;;5003289;28;19921;-77
2023/08/23 16:18:46;;;;;;;;;;;;;;;;;;4994442;28;19914;-77
2023/08/23 16:21:33;;;;;;;;;;;;;;;;;;5007777;28;19936;-77
2023/08/23 16:24:19;;;;;;;;;;;;;;;;;;5002917;28;19917;-78
2023/08/23 16:27:06;;;;;;;;;;;;;;;;;;4998675;28;19925;-76
2023/08/23 16:29:53;;;;;;;;;;;;;;;;;;4997306;28;19918;-76
2023/08/23 16:32:40;;;;;;;;;;;;;;;;;;5007159;28;19932;-76
2023/08/23 16:35:26;;;;;;;;;;;;;;;;;;4998794;28;19933;-76
2023/08/23 16:38:13;;;;;;;;;;;;;;;;;;4990109;28;19921;-76
2023/08/23 16:41:00;;;;;;;;;;;;;;;;;;5002346;28;19941;-77
2023/08/23 16:43:48;;;;;;;;;;;;;;;;;;5002344;28;19914;-79
2023/08/23 16:46:35;;;;;;;;;;;;;;;;;;5007763;28;19948;-77
2023/08/23 16:49:21;;;;;;;;;;;;;;;;;;5000999;28;20347;-76
2023/08/23 16:52:07;;;;;;;;;;;;;;;;;;5006700;28;20298;-77
2023/08/23 16:54:55;;;;;;;;;;;;;;;;;;4999319;28;19921;-78
2023/08/23 16:57:42;;;;;;;;;;;;;;;;;;5006873;28;19925;-78
2023/08/23 17:00:28;;;;;;;;;;;;;;;;;;4996202;28;20005;-78
2023/08/23 17:03:15;;;;;;;;;;;;;;;;;;5007715;28;19921;-78
2023/08/23 17:06:01;;;;;;;;;;;;;;;;;;5006399;28;19924;-77
2023/08/23 17:08:48;;;;;;;;;;;;;;;;;;5001386;28;19917;-78
2023/08/23 17:11:35;;;;;;;;;;;;;;;;;;5004705;28;20313;-78
2023/08/23 17:14:21;;;;;;;;;;;;;;;;;;5012322;28;19929;-77
2023/08/23 17:17:10;;;;;;;;;;;;;;;;;;5000318;28;19945;-77
2023/08/23 17:19:57;;;;;;;;;;;;;;;;;;5001685;28;19949;-78
2023/08/23 17:22:43;;;;;;;;;;;;;;;;;;5006935;28;19935;-77
2023/08/23 17:25:30;;;;;;;;;;;;;;;;;;5006259;28;20363;-77
2023/08/23 17:28:16;;;;;;;;;;;;;;;;;;4996444;28;19921;-75
2023/08/23 17:31:03;;;;;;;;;;;;;;;;;;5005354;28;19926;-75
2023/08/23 17:33:50;;;;;;;;;;;;;;;;;;5009075;28;19918;-75
2023/08/23 17:36:36;;;;;;;;;;;;;;;;;;4998606;28;19926;-75
2023/08/23 17:39:23;;;;;;;;;;;;;;;;;;5002623;28;19921;-75
2023/08/23 17:42:10;;;;;;;;;;;;;;;;;;5002949;28;20496;-76
2023/08/23 17:44:58;;;;;;;;;;;;;;;;;;4994617;28;19917;-76
2023/08/23 17:47:44;;;;;;;;;;;;;;;;;;5012639;28;19925;-76
2023/08/23 17:50:31;;;;;;;;;;;;;;;;;;5004897;28;19921;-75
2023/08/23 17:53:17;;;;;;;;;;;;;;;;;;5008672;28;20474;-75
2023/08/23 17:56:04;;;;;;;;;;;;;;;;;;4996477;28;19929;-76
2023/08/23 17:58:50;;;;;;;;;;;;;;;;;;5005403;28;19928;-75
2023/08/23 18:01:37;;;;;;;;;;;;;;;;;;5005721;28;19921;-75
2023/08/23 18:04:23;;;;;;;;;;;;;;;;;;4994317;28;19918;-74
2023/08/23 18:07:10;;;;;;;;;;;;;;;;;;5002185;28;19925;-74
2023/08/23 18:09:59;;;;;;;;;;;;;;;;;;4999235;28;19917;-74
2023/08/23 18:12:46;;;;;;;;;;;;;;;;;;5005277;28;19958;-73
2023/08/23 18:15:34;;;;;;;;;;;;;;;;;;4998085;28;19972;-74
2023/08/23 18:18:20;;;;;;;;;;;;;;;;;;4995552;28;20389;-74
2023/08/23 18:21:07;;;;;;;;;;;;;;;;;;4999712;28;19925;-75
2023/08/23 18:23:54;;;;;;;;;;;;;;;;;;5007136;28;19921;-75
2023/08/23 18:26:41;;;;;;;;;;;;;;;;;;5001360;28;19921;-74
2023/08/23 18:29:27;;;;;;;;;;;;;;;;;;5004228;28;19921;-74
2023/08/23 18:32:14;;;;;;;;;;;;;;;;;;5000105;28;20643;-74
2023/08/23 18:35:00;;;;;;;;;;;;;;;;;;4998929;28;19929;-74
2023/08/23 18:37:47;;;;;;;;;;;;;;;;;;5005114;28;19929;-74
2023/08/23 18:40:35;;;;;;;;;;;;;;;;;;5005133;28;20309;-74
2023/08/23 18:43:21;;;;;;;;;;;;;;;;;;5000947;28;19918;-75
2023/08/23 18:46:08;;;;;;;;;;;;;;;;;;4997391;28;19928;-74
2023/08/23 18:48:54;;;;;;;;;;;;;;;;;;4998972;28;19928;-76
2023/08/23 18:51:40;;;;;;;;;;;;;;;;;;5001854;28;19932;-76
2023/08/23 18:54:27;;;;;;;;;;;;;;;;;;4998001;28;19928;-73
2023/08/23 18:57:13;;;;;;;;;;;;;;;;;;5001330;28;19948;-74
2023/08/23 19:00:00;;;;;;;;;;;;;;;;;;4994587;28;19922;-78
2023/08/23 19:02:47;;;;;;;;;;;;;;;;;;5001743;28;19925;-77
2023/08/23 19:05:33;;;;;;;;;;;;;;;;;;5006537;28;19932;-77
2023/08/23 19:08:20;;;;;;;;;;;;;;;;;;5001546;28;19928;-77
2023/08/23 19:11:06;;;;;;;;;;;;;;;;;;4998962;28;19913;-78
2023/08/23 19:13:53;;;;;;;;;;;;;;;;;;5013964;28;19923;-77
2023/08/23 19:16:39;;;;;;;;;;;;;;;;;;5008832;28;19939;-77
2023/08/23 19:19:26;;;;;;;;;;;;;;;;;;5011451;28;20284;-78
2023/08/23 19:22:12;;;;;;;;;;;;;;;;;;4996888;28;19929;-78
2023/08/23 19:24:59;;;;;;;;;;;;;;;;;;4997535;28;19918;-78
2023/08/23 19:27:45;;;;;;;;;;;;;;;;;;5003370;28;19925;-78
2023/08/23 19:30:32;;;;;;;;;;;;;;;;;;5008424;28;19928;-78
2023/08/23 19:33:19;;;;;;;;;;;;;;;;;;5011740;28;20364;-77
2023/08/23 19:36:06;;;;;;;;;;;;;;;;;;4996625;28;19932;-78
2023/08/23 19:38:52;;;;;;;;;;;;;;;;;;4994857;28;20378;-78
2023/08/23 19:41:38;;;;;;;;;;;;;;;;;;5000535;28;19922;-79
2023/08/23 19:44:25;;;;;;;;;;;;;;;;;;4988659;28;19925;-78
2023/08/23 19:47:12;;;;;;;;;;;;;;;;;;4999208;28;19922;-78
2023/08/23 19:49:58;;;;;;;;;;;;;;;;;;4999768;28;20012;-78
2023/08/23 19:52:46;;;;;;;;;;;;;;;;;;4999090;28;19917;-78
2023/08/23 19:55:33;;;;;;;;;;;;;;;;;;5004503;28;20363;-78
2023/08/23 19:58:20;;;;;;;;;;;;;;;;;;5004531;28;19928;-78
2023/08/23 20:01:07;;;;;;;;;;;;;;;;;;4994025;28;19936;-78
2023/08/23 20:03:53;;;;;;;;;;;;;;;;;;4990218;28;19928;-79
2023/08/23 20:06:40;;;;;;;;;;;;;;;;;;5005026;28;19925;-77
2023/08/23 20:09:26;;;;;;;;;;;;;;;;;;4998231;28;20002;-80
2023/08/23 20:12:13;;;;;;;;;;;;;;;;;;5001541;28;19936;-78
2023/08/23 20:14:59;;;;;;;;;;;;;;;;;;5000828;28;19932;-76
2023/08/23 20:17:46;;;;;;;;;;;;;;;;;;4991792;28;19948;-78
2023/08/23 20:20:33;;;;;;;;;;;;;;;;;;5000323;28;20134;-79
2023/08/23 20:23:20;;;;;;;;;;;;;;;;;;4997718;28;19930;-77
2023/08/23 20:26:08;;;;;;;;;;;;;;;;;;4996465;28;19914;-78
2023/08/23 20:28:54;;;;;;;;;;;;;;;;;;5006300;28;19976;-78
2023/08/23 20:31:41;;;;;;;;;;;;;;;;;;4999053;28;19917;-77
2023/08/23 20:34:27;;;;;;;;;;;;;;;;;;5003792;28;19924;-78
2023/08/23 20:37:14;;;;;;;;;;;;;;;;;;5010150;28;19926;-78
2023/08/23 20:40:00;;;;;;;;;;;;;;;;;;4997747;28;19922;-78
2023/08/23 20:42:48;;;;;;;;;;;;;;;;;;5002107;28;19922;-77
2023/08/23 20:45:38;;;;;;;;;;;;;;;;;;4999373;28;19973;-77
2023/08/23 20:48:24;;;;;;;;;;;;;;;;;;5002281;28;20399;-76
2023/08/23 20:51:12;;;;;;;;;;;;;;;;;;4997565;28;19918;-77
2023/08/23 20:53:58;;;;;;;;;;;;;;;;;;5012155;28;19956;-76
2023/08/23 20:56:45;;;;;;;;;;;;;;;;;;5011193;28;19921;-80
2023/08/23 20:59:31;;;;;;;;;;;;;;;;;;4993806;28;19918;-76
2023/08/23 21:02:18;;;;;;;;;;;;;;;;;;5004046;28;19924;-78
2023/08/23 21:05:04;;;;;;;;;;;;;;;;;;5006862;28;19969;-79
2023/08/23 21:07:51;;;;;;;;;;;;;;;;;;5004500;28;20316;-78
2023/08/23 21:10:37;;;;;;;;;;;;;;;;;;5008377;28;19921;-76
2023/08/23 21:13:24;;;;;;;;;;;;;;;;;;4997262;28;19922;-75
2023/08/23 21:16:10;;;;;;;;;;;;;;;;;;5005422;28;19926;-75
2023/08/23 21:18:59;;;;;;;;;;;;;;;;;;5002994;28;19921;-75
2023/08/23 21:21:46;;;;;;;;;;;;;;;;;;5008160;28;19934;-75
2023/08/23 21:24:32;;;;;;;;;;;;;;;;;;5007081;28;19941;-75
2023/08/23 21:27:19;;;;;;;;;;;;;;;;;;5008821;28;20282;-77
2023/08/23 21:30:05;;;;;;;;;;;;;;;;;;5005881;28;19917;-77
2023/08/23 21:32:53;;;;;;;;;;;;;;;;;;4992985;28;19917;-76
2023/08/23 21:35:39;;;;;;;;;;;;;;;;;;4992321;28;20005;-76
2023/08/23 21:38:26;;;;;;;;;;;;;;;;;;5005542;28;19921;-75
2023/08/23 21:41:12;;;;;;;;;;;;;;;;;;5003539;28;19921;-74
2023/08/23 21:43:59;;;;;;;;;;;;;;;;;;5005416;28;19921;-75
2023/08/23 21:46:46;;;;;;;;;;;;;;;;;;5000687;28;19960;-75
2023/08/23 21:49:32;;;;;;;;;;;;;;;;;;4993834;28;19924;-76
2023/08/23 21:52:19;;;;;;;;;;;;;;;;;;5003542;28;19925;-74
2023/08/23 21:55:05;;;;;;;;;;;;;;;;;;4993985;28;19937;-75
2023/08/23 21:57:52;;;;;;;;;;;;;;;;;;5012801;28;20458;-75
2023/08/23 22:00:38;;;;;;;;;;;;;;;;;;5009067;28;19925;-78
2023/08/23 22:03:25;;;;;;;;;;;;;;;;;;5010875;28;19925;-75
2023/08/23 22:06:12;;;;;;;;;;;;;;;;;;5013699;28;19921;-76
2023/08/23 22:08:58;;;;;;;;;;;;;;;;;;5001519;28;19917;-76
2023/08/23 22:11:45;;;;;;;;;;;;;;;;;;5008229;28;19914;-76
2023/08/23 22:14:31;;;;;;;;;;;;;;;;;;4994375;28;19929;-75
2023/08/23 22:17:18;;;;;;;;;;;;;;;;;;5009580;28;20389;-75
2023/08/23 22:20:06;;;;;;;;;;;;;;;;;;5006546;28;19928;-76
2023/08/23 22:22:52;;;;;;;;;;;;;;;;;;5003994;28;19929;-76
2023/08/23 22:25:39;;;;;;;;;;;;;;;;;;4993819;28;19928;-75
2023/08/23 22:28:25;;;;;;;;;;;;;;;;;;4991002;28;19925;-75
2023/08/23 22:31:13;;;;;;;;;;;;;;;;;;4997920;28;19918;-74
2023/08/23 22:34:00;;;;;;;;;;;;;;;;;;4991399;28;19917;-76
2023/08/23 22:36:46;;;;;;;;;;;;;;;;;;5015430;28;19929;-75
2023/08/23 22:39:33;;;;;;;;;;;;;;;;;;5003886;28;19913;-75
2023/08/23 22:42:19;;;;;;;;;;;;;;;;;;5008025;28;20386;-74
2023/08/23 22:45:06;;;;;;;;;;;;;;;;;;4996337;28;20428;-74
2023/08/23 22:47:52;;;;;;;;;;;;;;;;;;5011756;28;19925;-75
2023/08/23 22:50:39;;;;;;;;;;;;;;;;;;4996203;28;19948;-75
2023/08/23 22:53:26;;;;;;;;;;;;;;;;;;5003422;28;20611;-75
2023/08/23 22:56:12;;;;;;;;;;;;;;;;;;5009032;28;19933;-77
2023/08/23 22:58:59;;;;;;;;;;;;;;;;;;5000481;28;19922;-77
2023/08/23 23:01:45;;;;;;;;;;;;;;;;;;5000647;28;19924;-75
2023/08/23 23:04:32;;;;;;;;;;;;;;;;;;4997528;28;19929;-75
2023/08/23 23:07:19;;;;;;;;;;;;;;;;;;5005729;28;19924;-75
2023/08/23 23:10:09;;;;;;;;;;;;;;;;;;5002886;28;19928;-78
2023/08/23 23:12:55;;;;;;;;;;;;;;;;;;5004748;28;20550;-77
2023/08/23 23:15:42;;;;;;;;;;;;;;;;;;5006264;28;19960;-75
2023/08/23 23:18:28;;;;;;;;;;;;;;;;;;5009429;28;19925;-75
2023/08/23 23:21:17;;;;;;;;;;;;;;;;;;5009737;28;19927;-75
2023/08/23 23:24:04;;;;;;;;;;;;;;;;;;5008466;28;19949;-75
2023/08/23 23:26:50;;;;;;;;;;;;;;;;;;4996204;28;19921;-76
2023/08/23 23:29:37;;;;;;;;;;;;;;;;;;4996095;28;19917;-76
2023/08/23 23:32:23;;;;;;;;;;;;;;;;;;5003620;28;20272;-76
2023/08/23 23:35:10;;;;;;;;;;;;;;;;;;4999813;28;20313;-75
2023/08/23 23:37:56;;;;;;;;;;;;;;;;;;5002629;28;19921;-74
2023/08/23 23:40:43;;;;;;;;;;;;;;;;;;5000609;28;20376;-75
2023/08/23 23:43:29;;;;;;;;;;;;;;;;;;4990730;28;19925;-75
2023/08/23 23:46:17;;;;;;;;;;;;;;;;;;5000727;28;20476;-76
2023/08/23 23:49:03;;;;;;;;;;;;;;;;;;5000178;28;19926;-77
2023/08/23 23:51:50;;;;;;;;;;;;;;;;;;4991993;28;19913;-77
2023/08/23 23:54:36;;;;;;;;;;;;;;;;;;4997113;28;19921;-76
2023/08/23 23:57:23;;;;;;;;;;;;;;;;;;5006551;28;19925;-75
